sensor_id;sensor_type;location;lat;lon;timestamp;temperature;humidity
15656;DHT22;7928;43.614;1.456;2023-04-03T00:00:33;10.50;99.90
15656;DHT22;7928;43.614;1.456;2023-04-03T00:03:00;10.50;99.90
15656;DHT22;7928;43.614;1.456;2023-04-03T00:05:27;10.60;99.90
15656;DHT22;7928;43.614;1.456;2023-04-03T00:07:54;10.40;99.90
15656;DHT22;7928;43.614;1.456;2023-04-03T00:10:22;10.70;99.90
15656;DHT22;7928;43.614;1.456;2023-04-03T00:12:50;10.40;99.90
15656;DHT22;7928;43.614;1.456;2023-04-03T00:15:17;10.40;99.90
15656;DHT22;7928;43.614;1.456;2023-04-03T00:17:44;10.40;99.90
15656;DHT22;7928;43.614;1.456;2023-04-03T00:20:11;10.40;99.90
15656;DHT22;7928;43.614;1.456;2023-04-03T00:22:38;10.20;99.90
15656;DHT22;7928;43.614;1.456;2023-04-03T00:25:06;10.40;99.90
15656;DHT22;7928;43.614;1.456;2023-04-03T00:27:35;10.40;99.90
15656;DHT22;7928;43.614;1.456;2023-04-03T00:30:05;10.40;99.90
15656;DHT22;7928;43.614;1.456;2023-04-03T00:32:32;10.50;99.90
15656;DHT22;7928;43.614;1.456;2023-04-03T00:34:59;11.50;99.90
15656;DHT22;7928;43.614;1.456;2023-04-03T00:37:26;10.70;99.90
15656;DHT22;7928;43.614;1.456;2023-04-03T00:39:53;10.40;99.90
15656;DHT22;7928;43.614;1.456;2023-04-03T00:42:20;11.00;99.90
15656;DHT22;7928;43.614;1.456;2023-04-03T00:48:03;10.50;99.90
15656;DHT22;7928;43.614;1.456;2023-04-03T00:50:34;10.50;99.90
15656;DHT22;7928;43.614;1.456;2023-04-03T00:53:03;10.00;99.90
15656;DHT22;7928;43.614;1.456;2023-04-03T00:55:31;10.20;99.90
15656;DHT22;7928;43.614;1.456;2023-04-03T00:58:00;10.30;99.90
15656;DHT22;7928;43.614;1.456;2023-04-03T01:00:28;10.20;99.90
15656;DHT22;7928;43.614;1.456;2023-04-03T01:02:55;10.30;99.90
15656;DHT22;7928;43.614;1.456;2023-04-03T01:05:23;11.20;99.90
15656;DHT22;7928;43.614;1.456;2023-04-03T01:07:51;10.30;99.90
15656;DHT22;7928;43.614;1.456;2023-04-03T01:10:19;10.30;99.90
15656;DHT22;7928;43.614;1.456;2023-04-03T01:12:48;10.20;99.90
15656;DHT22;7928;43.614;1.456;2023-04-03T01:15:18;10.50;99.90
15656;DHT22;7928;43.614;1.456;2023-04-03T01:17:47;10.20;99.90
15656;DHT22;7928;43.614;1.456;2023-04-03T01:21:02;10.90;99.90
15656;DHT22;7928;43.614;1.456;2023-04-03T01:23:52;10.90;99.90
15656;DHT22;7928;43.614;1.456;2023-04-03T01:26:20;9.80;99.90
15656;DHT22;7928;43.614;1.456;2023-04-03T01:28:47;10.20;99.90
15656;DHT22;7928;43.614;1.456;2023-04-03T01:31:20;10.90;99.90
15656;DHT22;7928;43.614;1.456;2023-04-03T01:33:51;10.30;99.90
15656;DHT22;7928;43.614;1.456;2023-04-03T01:36:20;10.30;99.90
15656;DHT22;7928;43.614;1.456;2023-04-03T01:38:48;10.50;99.90
15656;DHT22;7928;43.614;1.456;2023-04-03T01:41:15;9.90;99.90
15656;DHT22;7928;43.614;1.456;2023-04-03T01:43:44;10.10;99.90
15656;DHT22;7928;43.614;1.456;2023-04-03T01:46:11;10.70;99.90
15656;DHT22;7928;43.614;1.456;2023-04-03T01:48:38;10.30;99.90
15656;DHT22;7928;43.614;1.456;2023-04-03T01:51:06;10.20;99.90
15656;DHT22;7928;43.614;1.456;2023-04-03T01:53:33;10.20;99.90
15656;DHT22;7928;43.614;1.456;2023-04-03T01:56:00;10.20;99.90
15656;DHT22;7928;43.614;1.456;2023-04-03T01:58:27;10.70;99.90
15656;DHT22;7928;43.614;1.456;2023-04-03T02:00:54;9.70;99.90
15656;DHT22;7928;43.614;1.456;2023-04-03T02:03:21;10.10;99.90
15656;DHT22;7928;43.614;1.456;2023-04-03T02:05:49;10.60;99.90
15656;DHT22;7928;43.614;1.456;2023-04-03T02:08:17;10.40;99.90
15656;DHT22;7928;43.614;1.456;2023-04-03T02:10:47;9.70;99.90
15656;DHT22;7928;43.614;1.456;2023-04-03T02:13:14;10.00;99.90
15656;DHT22;7928;43.614;1.456;2023-04-03T02:15:41;9.70;99.90
15656;DHT22;7928;43.614;1.456;2023-04-03T02:18:08;9.90;99.90
15656;DHT22;7928;43.614;1.456;2023-04-03T02:23:03;10.00;99.90
15656;DHT22;7928;43.614;1.456;2023-04-03T02:25:32;10.00;99.90
15656;DHT22;7928;43.614;1.456;2023-04-03T02:28:00;10.20;99.90
15656;DHT22;7928;43.614;1.456;2023-04-03T02:30:27;10.00;99.90
15656;DHT22;7928;43.614;1.456;2023-04-03T02:32:54;9.90;99.90
15656;DHT22;7928;43.614;1.456;2023-04-03T02:35:21;9.80;99.90
15656;DHT22;7928;43.614;1.456;2023-04-03T02:37:48;10.00;99.90
15656;DHT22;7928;43.614;1.456;2023-04-03T02:40:15;10.20;99.90
15656;DHT22;7928;43.614;1.456;2023-04-03T02:42:44;10.10;99.90
15656;DHT22;7928;43.614;1.456;2023-04-03T02:45:10;9.40;99.90
15656;DHT22;7928;43.614;1.456;2023-04-03T02:47:37;9.80;99.90
15656;DHT22;7928;43.614;1.456;2023-04-03T02:50:05;9.90;99.90
15656;DHT22;7928;43.614;1.456;2023-04-03T02:52:32;9.60;99.90
15656;DHT22;7928;43.614;1.456;2023-04-03T02:54:59;9.50;99.90
15656;DHT22;7928;43.614;1.456;2023-04-03T02:57:26;9.80;99.90
15656;DHT22;7928;43.614;1.456;2023-04-03T02:59:54;9.80;99.90
15656;DHT22;7928;43.614;1.456;2023-04-03T03:02:21;9.50;99.90
15656;DHT22;7928;43.614;1.456;2023-04-03T03:04:48;9.80;99.90
15656;DHT22;7928;43.614;1.456;2023-04-03T03:07:15;9.80;99.90
15656;DHT22;7928;43.614;1.456;2023-04-03T03:09:42;9.60;99.90
15656;DHT22;7928;43.614;1.456;2023-04-03T03:12:09;9.90;99.90
15656;DHT22;7928;43.614;1.456;2023-04-03T03:14:36;9.70;99.90
15656;DHT22;7928;43.614;1.456;2023-04-03T03:17:04;9.60;99.90
15656;DHT22;7928;43.614;1.456;2023-04-03T03:19:31;9.70;99.90
15656;DHT22;7928;43.614;1.456;2023-04-03T03:21:58;9.80;99.90
15656;DHT22;7928;43.614;1.456;2023-04-03T03:24:25;9.50;99.90
15656;DHT22;7928;43.614;1.456;2023-04-03T03:26:52;9.60;99.90
15656;DHT22;7928;43.614;1.456;2023-04-03T03:31:46;10.00;99.90
15656;DHT22;7928;43.614;1.456;2023-04-03T03:34:15;9.90;99.90
15656;DHT22;7928;43.614;1.456;2023-04-03T03:36:42;9.80;99.90
15656;DHT22;7928;43.614;1.456;2023-04-03T03:39:09;10.30;99.90
15656;DHT22;7928;43.614;1.456;2023-04-03T03:41:36;9.80;99.90
15656;DHT22;7928;43.614;1.456;2023-04-03T03:44:03;10.40;99.90
15656;DHT22;7928;43.614;1.456;2023-04-03T03:46:31;10.00;99.90
15656;DHT22;7928;43.614;1.456;2023-04-03T03:48:58;10.10;99.90
15656;DHT22;7928;43.614;1.456;2023-04-03T03:51:26;10.20;99.90
15656;DHT22;7928;43.614;1.456;2023-04-03T03:53:53;9.80;99.90
15656;DHT22;7928;43.614;1.456;2023-04-03T03:56:20;10.00;99.90
15656;DHT22;7928;43.614;1.456;2023-04-03T03:58:47;9.70;99.90
15656;DHT22;7928;43.614;1.456;2023-04-03T04:01:15;10.20;99.90
15656;DHT22;7928;43.614;1.456;2023-04-03T04:03:42;9.50;99.90
15656;DHT22;7928;43.614;1.456;2023-04-03T04:06:09;9.90;99.90
15656;DHT22;7928;43.614;1.456;2023-04-03T04:08:37;9.50;99.90
15656;DHT22;7928;43.614;1.456;2023-04-03T04:11:04;9.70;99.90
15656;DHT22;7928;43.614;1.456;2023-04-03T04:15:59;10.10;99.90
15656;DHT22;7928;43.614;1.456;2023-04-03T04:18:26;9.40;99.90
15656;DHT22;7928;43.614;1.456;2023-04-03T04:20:53;8.90;99.90
15656;DHT22;7928;43.614;1.456;2023-04-03T04:23:20;9.60;99.90
15656;DHT22;7928;43.614;1.456;2023-04-03T04:25:48;9.50;99.90
15656;DHT22;7928;43.614;1.456;2023-04-03T04:28:16;9.60;99.90
15656;DHT22;7928;43.614;1.456;2023-04-03T04:30:43;10.00;99.90
15656;DHT22;7928;43.614;1.456;2023-04-03T04:33:10;9.50;99.90
15656;DHT22;7928;43.614;1.456;2023-04-03T04:35:37;9.40;99.90
15656;DHT22;7928;43.614;1.456;2023-04-03T04:38:04;9.70;99.90
15656;DHT22;7928;43.614;1.456;2023-04-03T04:40:31;10.10;99.90
15656;DHT22;7928;43.614;1.456;2023-04-03T04:42:59;9.80;99.90
15656;DHT22;7928;43.614;1.456;2023-04-03T04:45:26;9.80;99.90
15656;DHT22;7928;43.614;1.456;2023-04-03T04:47:55;9.60;99.90
15656;DHT22;7928;43.614;1.456;2023-04-03T04:50:22;9.60;99.90
15656;DHT22;7928;43.614;1.456;2023-04-03T04:52:49;9.60;99.90
15656;DHT22;7928;43.614;1.456;2023-04-03T04:55:16;9.50;99.90
15656;DHT22;7928;43.614;1.456;2023-04-03T04:57:43;9.60;99.90
15656;DHT22;7928;43.614;1.456;2023-04-03T05:00:13;9.00;99.90
15656;DHT22;7928;43.614;1.456;2023-04-03T05:05:08;9.40;99.90
15656;DHT22;7928;43.614;1.456;2023-04-03T05:07:35;10.10;99.90
15656;DHT22;7928;43.614;1.456;2023-04-03T05:10:03;9.80;99.90
15656;DHT22;7928;43.614;1.456;2023-04-03T05:12:30;9.30;99.90
15656;DHT22;7928;43.614;1.456;2023-04-03T05:14:57;10.10;99.90
15656;DHT22;7928;43.614;1.456;2023-04-03T05:17:25;9.70;99.90
15656;DHT22;7928;43.614;1.456;2023-04-03T05:19:52;9.30;99.90
15656;DHT22;7928;43.614;1.456;2023-04-03T05:22:19;9.40;99.90
15656;DHT22;7928;43.614;1.456;2023-04-03T05:24:46;9.90;99.90
15656;DHT22;7928;43.614;1.456;2023-04-03T05:27:13;9.20;99.90
15656;DHT22;7928;43.614;1.456;2023-04-03T05:29:40;9.20;99.90
15656;DHT22;7928;43.614;1.456;2023-04-03T05:32:09;8.80;99.90
15656;DHT22;7928;43.614;1.456;2023-04-03T05:34:37;9.70;99.90
15656;DHT22;7928;43.614;1.456;2023-04-03T05:37:04;9.20;99.90
15656;DHT22;7928;43.614;1.456;2023-04-03T05:39:31;9.70;99.90
15656;DHT22;7928;43.614;1.456;2023-04-03T05:41:59;9.70;99.90
15656;DHT22;7928;43.614;1.456;2023-04-03T05:44:26;9.10;99.90
15656;DHT22;7928;43.614;1.456;2023-04-03T05:46:53;9.60;99.90
15656;DHT22;7928;43.614;1.456;2023-04-03T05:49:20;9.80;99.90
15656;DHT22;7928;43.614;1.456;2023-04-03T05:51:49;9.50;99.90
15656;DHT22;7928;43.614;1.456;2023-04-03T05:54:19;9.80;99.90
15656;DHT22;7928;43.614;1.456;2023-04-03T05:56:48;9.70;99.90
15656;DHT22;7928;43.614;1.456;2023-04-03T05:59:15;9.60;99.90
15656;DHT22;7928;43.614;1.456;2023-04-03T06:01:42;9.60;99.90
15656;DHT22;7928;43.614;1.456;2023-04-03T06:04:10;9.60;99.90
15656;DHT22;7928;43.614;1.456;2023-04-03T06:06:46;9.30;99.90
15656;DHT22;7928;43.614;1.456;2023-04-03T06:09:15;9.70;99.90
15656;DHT22;7928;43.614;1.456;2023-04-03T06:11:42;10.00;99.90
15656;DHT22;7928;43.614;1.456;2023-04-03T06:14:10;9.70;99.90
15656;DHT22;7928;43.614;1.456;2023-04-03T06:16:37;9.80;99.90
15656;DHT22;7928;43.614;1.456;2023-04-03T06:19:04;9.80;99.90
15656;DHT22;7928;43.614;1.456;2023-04-03T06:24:01;9.70;99.90
15656;DHT22;7928;43.614;1.456;2023-04-03T06:26:30;9.70;99.90
15656;DHT22;7928;43.614;1.456;2023-04-03T06:28:57;9.60;99.90
15656;DHT22;7928;43.614;1.456;2023-04-03T06:31:24;9.40;99.90
15656;DHT22;7928;43.614;1.456;2023-04-03T06:33:51;10.30;99.90
15656;DHT22;7928;43.614;1.456;2023-04-03T06:36:19;9.80;99.90
15656;DHT22;7928;43.614;1.456;2023-04-03T06:38:47;9.80;99.90
15656;DHT22;7928;43.614;1.456;2023-04-03T06:41:14;9.90;99.90
15656;DHT22;7928;43.614;1.456;2023-04-03T06:43:43;10.10;99.90
15656;DHT22;7928;43.614;1.456;2023-04-03T06:46:14;9.80;99.90
15656;DHT22;7928;43.614;1.456;2023-04-03T06:48:42;10.10;99.90
15656;DHT22;7928;43.614;1.456;2023-04-03T06:51:17;10.10;99.90
15656;DHT22;7928;43.614;1.456;2023-04-03T06:53:45;10.30;99.90
15656;DHT22;7928;43.614;1.456;2023-04-03T06:56:12;10.10;99.90
15656;DHT22;7928;43.614;1.456;2023-04-03T06:58:40;10.40;99.90
15656;DHT22;7928;43.614;1.456;2023-04-03T07:01:09;10.10;99.90
15656;DHT22;7928;43.614;1.456;2023-04-03T07:03:37;10.80;99.90
15656;DHT22;7928;43.614;1.456;2023-04-03T07:06:05;10.50;99.90
15656;DHT22;7928;43.614;1.456;2023-04-03T07:08:33;9.60;99.90
15656;DHT22;7928;43.614;1.456;2023-04-03T07:11:00;10.20;99.90
15656;DHT22;7928;43.614;1.456;2023-04-03T07:13:27;10.40;99.90
15656;DHT22;7928;43.614;1.456;2023-04-03T07:15:54;9.80;99.90
15656;DHT22;7928;43.614;1.456;2023-04-03T07:18:23;10.30;99.90
15656;DHT22;7928;43.614;1.456;2023-04-03T07:20:50;10.40;99.90
15656;DHT22;7928;43.614;1.456;2023-04-03T07:23:18;10.40;99.90
15656;DHT22;7928;43.614;1.456;2023-04-03T07:25:47;10.30;99.90
15656;DHT22;7928;43.614;1.456;2023-04-03T07:28:15;10.40;99.90
15656;DHT22;7928;43.614;1.456;2023-04-03T07:30:43;10.20;99.90
15656;DHT22;7928;43.614;1.456;2023-04-03T07:33:10;10.10;99.90
15656;DHT22;7928;43.614;1.456;2023-04-03T07:35:40;10.40;99.90
15656;DHT22;7928;43.614;1.456;2023-04-03T07:38:08;10.60;99.90
15656;DHT22;7928;43.614;1.456;2023-04-03T07:40:35;10.60;99.90
15656;DHT22;7928;43.614;1.456;2023-04-03T07:43:02;10.40;99.90
15656;DHT22;7928;43.614;1.456;2023-04-03T07:45:29;10.50;99.90
15656;DHT22;7928;43.614;1.456;2023-04-03T07:47:56;11.00;99.90
15656;DHT22;7928;43.614;1.456;2023-04-03T07:50:23;11.00;99.90
15656;DHT22;7928;43.614;1.456;2023-04-03T07:52:52;10.70;99.90
15656;DHT22;7928;43.614;1.456;2023-04-03T07:55:21;10.80;99.90
15656;DHT22;7928;43.614;1.456;2023-04-03T07:57:48;10.70;99.90
15656;DHT22;7928;43.614;1.456;2023-04-03T08:00:16;10.50;99.90
15656;DHT22;7928;43.614;1.456;2023-04-03T08:02:45;10.60;99.90
15656;DHT22;7928;43.614;1.456;2023-04-03T08:05:16;10.70;99.90
15656;DHT22;7928;43.614;1.456;2023-04-03T08:07:43;10.60;99.90
15656;DHT22;7928;43.614;1.456;2023-04-03T08:10:11;10.80;99.90
15656;DHT22;7928;43.614;1.456;2023-04-03T08:12:38;10.90;99.90
15656;DHT22;7928;43.614;1.456;2023-04-03T08:15:07;11.00;99.90
15656;DHT22;7928;43.614;1.456;2023-04-03T08:17:34;11.10;99.90
15656;DHT22;7928;43.614;1.456;2023-04-03T08:20:01;10.70;99.90
15656;DHT22;7928;43.614;1.456;2023-04-03T08:22:28;10.90;99.90
15656;DHT22;7928;43.614;1.456;2023-04-03T08:27:25;11.90;99.90
15656;DHT22;7928;43.614;1.456;2023-04-03T08:29:52;12.20;99.90
15656;DHT22;7928;43.614;1.456;2023-04-03T08:34:46;12.30;99.90
15656;DHT22;7928;43.614;1.456;2023-04-03T08:37:13;12.20;99.90
15656;DHT22;7928;43.614;1.456;2023-04-03T08:39:41;12.40;99.90
15656;DHT22;7928;43.614;1.456;2023-04-03T08:42:15;12.60;99.90
15656;DHT22;7928;43.614;1.456;2023-04-03T08:44:50;12.60;99.90
15656;DHT22;7928;43.614;1.456;2023-04-03T08:47:24;12.00;99.90
15656;DHT22;7928;43.614;1.456;2023-04-03T08:49:53;12.80;99.90
15656;DHT22;7928;43.614;1.456;2023-04-03T08:52:32;12.10;99.90
15656;DHT22;7928;43.614;1.456;2023-04-03T08:55:02;13.00;99.90
15656;DHT22;7928;43.614;1.456;2023-04-03T08:57:31;12.90;99.90
15656;DHT22;7928;43.614;1.456;2023-04-03T09:00:04;12.70;99.90
15656;DHT22;7928;43.614;1.456;2023-04-03T09:02:34;12.90;99.90
15656;DHT22;7928;43.614;1.456;2023-04-03T09:05:11;11.90;99.90
15656;DHT22;7928;43.614;1.456;2023-04-03T09:07:43;12.60;99.90
15656;DHT22;7928;43.614;1.456;2023-04-03T09:10:13;12.40;99.90
15656;DHT22;7928;43.614;1.456;2023-04-03T09:12:43;12.80;99.90
15656;DHT22;7928;43.614;1.456;2023-04-03T09:15:20;13.20;99.90
15656;DHT22;7928;43.614;1.456;2023-04-03T09:17:57;13.50;99.90
15656;DHT22;7928;43.614;1.456;2023-04-03T09:20:32;14.00;99.90
15656;DHT22;7928;43.614;1.456;2023-04-03T09:23:10;13.10;99.90
15656;DHT22;7928;43.614;1.456;2023-04-03T09:25:41;13.70;99.90
15656;DHT22;7928;43.614;1.456;2023-04-03T09:28:09;14.30;99.90
15656;DHT22;7928;43.614;1.456;2023-04-03T09:30:38;13.40;99.90
15656;DHT22;7928;43.614;1.456;2023-04-03T09:33:05;14.40;99.90
15656;DHT22;7928;43.614;1.456;2023-04-03T09:35:34;13.70;99.90
15656;DHT22;7928;43.614;1.456;2023-04-03T09:38:13;14.10;99.90
15656;DHT22;7928;43.614;1.456;2023-04-03T09:40:42;14.50;99.90
15656;DHT22;7928;43.614;1.456;2023-04-03T09:43:30;14.20;99.90
15656;DHT22;7928;43.614;1.456;2023-04-03T09:46:17;14.40;99.90
15656;DHT22;7928;43.614;1.456;2023-04-03T09:48:51;14.60;99.90
15656;DHT22;7928;43.614;1.456;2023-04-03T09:51:18;14.30;99.90
15656;DHT22;7928;43.614;1.456;2023-04-03T09:53:45;14.70;99.90
15656;DHT22;7928;43.614;1.456;2023-04-03T09:56:21;15.10;99.90
15656;DHT22;7928;43.614;1.456;2023-04-03T09:58:50;14.90;99.90
15656;DHT22;7928;43.614;1.456;2023-04-03T10:01:26;14.80;99.90
15656;DHT22;7928;43.614;1.456;2023-04-03T10:04:06;14.80;99.90
15656;DHT22;7928;43.614;1.456;2023-04-03T10:06:34;14.90;99.90
15656;DHT22;7928;43.614;1.456;2023-04-03T10:09:07;15.50;99.90
15656;DHT22;7928;43.614;1.456;2023-04-03T10:11:58;14.90;99.90
15656;DHT22;7928;43.614;1.456;2023-04-03T10:14:27;16.10;99.90
15656;DHT22;7928;43.614;1.456;2023-04-03T10:17:01;16.00;99.90
15656;DHT22;7928;43.614;1.456;2023-04-03T10:19:35;16.20;99.90
15656;DHT22;7928;43.614;1.456;2023-04-03T10:22:08;16.80;99.90
15656;DHT22;7928;43.614;1.456;2023-04-03T10:24:45;16.90;99.90
15656;DHT22;7928;43.614;1.456;2023-04-03T10:27:18;16.70;99.90
15656;DHT22;7928;43.614;1.456;2023-04-03T10:29:57;17.20;99.90
15656;DHT22;7928;43.614;1.456;2023-04-03T10:32:43;16.70;99.90
15656;DHT22;7928;43.614;1.456;2023-04-03T10:35:18;16.90;99.90
15656;DHT22;7928;43.614;1.456;2023-04-03T10:37:59;18.30;99.90
15656;DHT22;7928;43.614;1.456;2023-04-03T10:40:33;17.70;99.90
15656;DHT22;7928;43.614;1.456;2023-04-03T10:43:06;17.90;99.90
15656;DHT22;7928;43.614;1.456;2023-04-03T10:45:53;18.00;99.90
15656;DHT22;7928;43.614;1.456;2023-04-03T10:48:34;17.60;99.90
15656;DHT22;7928;43.614;1.456;2023-04-03T10:51:16;18.10;99.90
15656;DHT22;7928;43.614;1.456;2023-04-03T10:53:52;17.90;99.90
15656;DHT22;7928;43.614;1.456;2023-04-03T10:56:29;16.30;99.90
15656;DHT22;7928;43.614;1.456;2023-04-03T10:59:00;17.20;99.90
15656;DHT22;7928;43.614;1.456;2023-04-03T11:01:32;17.30;99.90
15656;DHT22;7928;43.614;1.456;2023-04-03T11:04:04;18.30;99.90
15656;DHT22;7928;43.614;1.456;2023-04-03T11:06:37;18.80;99.90
15656;DHT22;7928;43.614;1.456;2023-04-03T11:09:13;18.90;99.90
15656;DHT22;7928;43.614;1.456;2023-04-03T11:11:43;17.70;99.90
15656;DHT22;7928;43.614;1.456;2023-04-03T11:14:17;17.40;99.90
15656;DHT22;7928;43.614;1.456;2023-04-03T11:16:53;17.10;99.90
15656;DHT22;7928;43.614;1.456;2023-04-03T11:19:32;17.20;99.90
15656;DHT22;7928;43.614;1.456;2023-04-03T11:22:04;16.50;99.90
15656;DHT22;7928;43.614;1.456;2023-04-03T11:24:33;16.50;99.90
15656;DHT22;7928;43.614;1.456;2023-04-03T11:27:04;16.70;99.90
15656;DHT22;7928;43.614;1.456;2023-04-03T11:29:37;16.10;99.90
15656;DHT22;7928;43.614;1.456;2023-04-03T11:32:13;15.70;99.90
15656;DHT22;7928;43.614;1.456;2023-04-03T11:34:46;15.60;99.90
15656;DHT22;7928;43.614;1.456;2023-04-03T11:37:20;15.40;99.90
15656;DHT22;7928;43.614;1.456;2023-04-03T11:39:54;15.60;99.90
15656;DHT22;7928;43.614;1.456;2023-04-03T11:42:30;15.40;99.90
15656;DHT22;7928;43.614;1.456;2023-04-03T11:45:26;15.50;99.90
15656;DHT22;7928;43.614;1.456;2023-04-03T11:47:56;15.60;99.90
15656;DHT22;7928;43.614;1.456;2023-04-03T11:50:44;16.10;99.90
15656;DHT22;7928;43.614;1.456;2023-04-03T11:53:36;15.50;99.90
15656;DHT22;7928;43.614;1.456;2023-04-03T11:56:29;15.30;99.90
15656;DHT22;7928;43.614;1.456;2023-04-03T11:59:23;15.10;99.90
15656;DHT22;7928;43.614;1.456;2023-04-03T12:01:52;15.40;99.90
15656;DHT22;7928;43.614;1.456;2023-04-03T12:04:21;15.40;99.90
15656;DHT22;7928;43.614;1.456;2023-04-03T12:09:57;16.30;99.90
15656;DHT22;7928;43.614;1.456;2023-04-03T12:12:34;15.80;99.90
15656;DHT22;7928;43.614;1.456;2023-04-03T12:15:38;16.60;99.90
15656;DHT22;7928;43.614;1.456;2023-04-03T12:21:19;17.00;99.90
15656;DHT22;7928;43.614;1.456;2023-04-03T12:24:03;17.10;99.90
15656;DHT22;7928;43.614;1.456;2023-04-03T12:26:36;17.10;99.90
15656;DHT22;7928;43.614;1.456;2023-04-03T12:29:14;17.20;99.90
15656;DHT22;7928;43.614;1.456;2023-04-03T12:31:58;17.20;99.90
15656;DHT22;7928;43.614;1.456;2023-04-03T12:34:49;16.90;99.90
15656;DHT22;7928;43.614;1.456;2023-04-03T12:37:29;17.00;99.90
15656;DHT22;7928;43.614;1.456;2023-04-03T12:40:08;16.90;99.90
15656;DHT22;7928;43.614;1.456;2023-04-03T12:43:02;16.90;99.90
15656;DHT22;7928;43.614;1.456;2023-04-03T12:45:41;16.70;99.90
15656;DHT22;7928;43.614;1.456;2023-04-03T12:48:14;16.50;99.90
15656;DHT22;7928;43.614;1.456;2023-04-03T12:50:43;16.70;99.90
15656;DHT22;7928;43.614;1.456;2023-04-03T12:53:14;16.60;99.90
15656;DHT22;7928;43.614;1.456;2023-04-03T12:55:43;16.80;99.90
15656;DHT22;7928;43.614;1.456;2023-04-03T12:58:16;16.80;99.90
15656;DHT22;7928;43.614;1.456;2023-04-03T13:00:46;16.60;99.90
15656;DHT22;7928;43.614;1.456;2023-04-03T13:03:22;16.70;99.90
15656;DHT22;7928;43.614;1.456;2023-04-03T13:05:53;16.70;99.90
15656;DHT22;7928;43.614;1.456;2023-04-03T13:08:21;16.00;99.90
15656;DHT22;7928;43.614;1.456;2023-04-03T13:10:54;16.30;99.90
15656;DHT22;7928;43.614;1.456;2023-04-03T13:13:23;16.30;99.90
15656;DHT22;7928;43.614;1.456;2023-04-03T13:15:52;16.10;99.90
15656;DHT22;7928;43.614;1.456;2023-04-03T13:18:24;16.40;99.90
15656;DHT22;7928;43.614;1.456;2023-04-03T13:20:53;17.10;99.90
15656;DHT22;7928;43.614;1.456;2023-04-03T13:23:22;16.70;99.90
15656;DHT22;7928;43.614;1.456;2023-04-03T13:25:50;17.10;99.90
15656;DHT22;7928;43.614;1.456;2023-04-03T13:28:20;16.80;99.90
15656;DHT22;7928;43.614;1.456;2023-04-03T13:31:03;16.60;99.90
15656;DHT22;7928;43.614;1.456;2023-04-03T13:33:33;17.40;99.90
15656;DHT22;7928;43.614;1.456;2023-04-03T13:36:05;17.80;99.90
15656;DHT22;7928;43.614;1.456;2023-04-03T13:38:34;17.90;99.90
15656;DHT22;7928;43.614;1.456;2023-04-03T13:41:04;17.60;99.90
15656;DHT22;7928;43.614;1.456;2023-04-03T13:43:33;17.60;99.90
15656;DHT22;7928;43.614;1.456;2023-04-03T13:46:05;17.40;99.90
15656;DHT22;7928;43.614;1.456;2023-04-03T13:48:48;17.40;99.90
15656;DHT22;7928;43.614;1.456;2023-04-03T13:51:22;17.20;99.90
15656;DHT22;7928;43.614;1.456;2023-04-03T13:53:52;17.40;99.90
15656;DHT22;7928;43.614;1.456;2023-04-03T13:56:24;17.60;99.90
15656;DHT22;7928;43.614;1.456;2023-04-03T13:58:55;17.50;99.90
15656;DHT22;7928;43.614;1.456;2023-04-03T14:01:24;17.40;99.90
15656;DHT22;7928;43.614;1.456;2023-04-03T14:03:54;18.30;99.90
15656;DHT22;7928;43.614;1.456;2023-04-03T14:06:22;17.90;99.90
15656;DHT22;7928;43.614;1.456;2023-04-03T14:08:49;17.80;99.90
15656;DHT22;7928;43.614;1.456;2023-04-03T14:11:19;17.30;99.90
15656;DHT22;7928;43.614;1.456;2023-04-03T14:13:48;17.10;99.90
15656;DHT22;7928;43.614;1.456;2023-04-03T14:16:18;17.10;99.90
15656;DHT22;7928;43.614;1.456;2023-04-03T14:18:48;16.70;99.90
15656;DHT22;7928;43.614;1.456;2023-04-03T14:21:17;17.20;99.90
15656;DHT22;7928;43.614;1.456;2023-04-03T14:23:44;16.90;99.90
15656;DHT22;7928;43.614;1.456;2023-04-03T14:26:13;21.60;99.90
15656;DHT22;7928;43.614;1.456;2023-04-03T14:28:43;16.40;99.90
15656;DHT22;7928;43.614;1.456;2023-04-03T14:31:11;16.30;99.90
15656;DHT22;7928;43.614;1.456;2023-04-03T14:33:38;16.30;99.90
15656;DHT22;7928;43.614;1.456;2023-04-03T14:36:13;16.30;99.90
15656;DHT22;7928;43.614;1.456;2023-04-03T14:38:41;16.60;99.90
15656;DHT22;7928;43.614;1.456;2023-04-03T14:41:12;16.50;99.90
15656;DHT22;7928;43.614;1.456;2023-04-03T14:43:39;16.50;99.90
15656;DHT22;7928;43.614;1.456;2023-04-03T14:46:12;16.50;99.90
15656;DHT22;7928;43.614;1.456;2023-04-03T14:48:39;16.50;99.90
15656;DHT22;7928;43.614;1.456;2023-04-03T14:51:06;16.50;99.90
15656;DHT22;7928;43.614;1.456;2023-04-03T14:53:35;16.40;99.90
15656;DHT22;7928;43.614;1.456;2023-04-03T14:56:08;16.40;99.90
15656;DHT22;7928;43.614;1.456;2023-04-03T14:58:37;16.20;99.90
15656;DHT22;7928;43.614;1.456;2023-04-03T15:01:04;17.20;99.90
15656;DHT22;7928;43.614;1.456;2023-04-03T15:03:31;16.90;99.90
15656;DHT22;7928;43.614;1.456;2023-04-03T15:05:58;16.90;99.90
15656;DHT22;7928;43.614;1.456;2023-04-03T15:08:27;16.40;99.90
15656;DHT22;7928;43.614;1.456;2023-04-03T15:10:57;16.90;99.90
15656;DHT22;7928;43.614;1.456;2023-04-03T15:13:24;17.00;99.90
15656;DHT22;7928;43.614;1.456;2023-04-03T15:15:52;16.90;99.90
15656;DHT22;7928;43.614;1.456;2023-04-03T15:18:22;16.70;99.90
15656;DHT22;7928;43.614;1.456;2023-04-03T15:20:49;16.80;99.90
15656;DHT22;7928;43.614;1.456;2023-04-03T15:23:17;16.90;99.90
15656;DHT22;7928;43.614;1.456;2023-04-03T15:25:44;16.70;99.90
15656;DHT22;7928;43.614;1.456;2023-04-03T15:28:19;17.40;99.90
15656;DHT22;7928;43.614;1.456;2023-04-03T15:30:48;17.20;99.90
15656;DHT22;7928;43.614;1.456;2023-04-03T15:35:42;17.20;99.90
15656;DHT22;7928;43.614;1.456;2023-04-03T15:38:10;16.90;99.90
15656;DHT22;7928;43.614;1.456;2023-04-03T15:40:37;16.80;99.90
15656;DHT22;7928;43.614;1.456;2023-04-03T15:43:05;16.60;99.90
15656;DHT22;7928;43.614;1.456;2023-04-03T15:45:35;17.00;99.90
15656;DHT22;7928;43.614;1.456;2023-04-03T15:48:03;16.70;99.90
15656;DHT22;7928;43.614;1.456;2023-04-03T15:50:31;17.50;99.90
15656;DHT22;7928;43.614;1.456;2023-04-03T15:52:58;17.50;99.90
15656;DHT22;7928;43.614;1.456;2023-04-03T15:55:29;18.40;99.90
15656;DHT22;7928;43.614;1.456;2023-04-03T15:57:56;18.80;99.90
15656;DHT22;7928;43.614;1.456;2023-04-03T16:00:24;18.50;99.90
15656;DHT22;7928;43.614;1.456;2023-04-03T16:02:55;18.10;99.90
15656;DHT22;7928;43.614;1.456;2023-04-03T16:05:25;18.00;99.90
15656;DHT22;7928;43.614;1.456;2023-04-03T16:07:52;17.30;99.90
15656;DHT22;7928;43.614;1.456;2023-04-03T16:10:20;17.30;99.90
15656;DHT22;7928;43.614;1.456;2023-04-03T16:12:48;17.00;99.90
15656;DHT22;7928;43.614;1.456;2023-04-03T16:15:15;17.00;99.90
15656;DHT22;7928;43.614;1.456;2023-04-03T16:17:42;16.80;99.90
15656;DHT22;7928;43.614;1.456;2023-04-03T16:20:11;16.90;99.90
15656;DHT22;7928;43.614;1.456;2023-04-03T16:22:40;17.00;99.90
15656;DHT22;7928;43.614;1.456;2023-04-03T16:25:08;17.00;99.90
15656;DHT22;7928;43.614;1.456;2023-04-03T16:27:36;17.90;99.90
15656;DHT22;7928;43.614;1.456;2023-04-03T16:30:04;17.90;99.90
15656;DHT22;7928;43.614;1.456;2023-04-03T16:32:32;18.00;99.90
15656;DHT22;7928;43.614;1.456;2023-04-03T16:34:59;17.30;99.90
15656;DHT22;7928;43.614;1.456;2023-04-03T16:37:28;17.40;99.90